createdAt,value
2022-08-04T00:01:41.065Z,1.60
2022-08-04T00:04:15.011Z,1.58
2022-08-04T00:06:53.709Z,1.48
2022-08-04T00:09:35.424Z,1.70
2022-08-04T00:12:03.219Z,1.60
2022-08-04T00:14:35.626Z,2.20
2022-08-04T00:17:07.205Z,1.70
2022-08-04T00:19:44.589Z,1.80
2022-08-04T00:22:13.337Z,1.73
2022-08-04T00:24:41.277Z,1.90
2022-08-04T00:27:08.935Z,1.70
2022-08-04T00:29:39.116Z,1.60
2022-08-04T00:32:08.767Z,1.63
2022-08-04T00:34:36.931Z,1.48
2022-08-04T00:37:05.807Z,1.77
2022-08-04T00:39:33.084Z,1.70
2022-08-04T00:42:20.881Z,1.80
2022-08-04T00:45:04.459Z,1.98
2022-08-04T00:48:12.193Z,1.90
2022-08-04T00:50:58.343Z,1.50
2022-08-04T00:53:50.575Z,2.03
2022-08-04T00:56:38.086Z,1.92
2022-08-04T00:59:35.552Z,1.58
2022-08-04T01:02:15.734Z,1.85
2022-08-04T01:05:11.367Z,1.90
2022-08-04T01:07:50.063Z,1.50
2022-08-04T01:10:37.759Z,1.77
2022-08-04T01:13:33.569Z,1.95
2022-08-04T01:16:02.266Z,1.65
2022-08-04T01:18:37.882Z,2.00
2022-08-04T01:21:28.981Z,1.98
2022-08-04T01:24:29.734Z,1.80
2022-08-04T01:27:32.225Z,1.67
2022-08-04T01:30:02.470Z,1.70
2022-08-04T01:32:37.389Z,1.80
2022-08-04T01:35:09.022Z,1.83
2022-08-04T01:37:50.041Z,1.92
2022-08-04T01:40:17.290Z,2.03
2022-08-04T01:42:45.698Z,1.73
2022-08-04T01:45:14.008Z,2.17
2022-08-04T01:47:43.090Z,1.50
2022-08-04T01:50:13.279Z,1.65
2022-08-04T01:52:42.187Z,1.80
2022-08-04T01:55:11.815Z,1.70
2022-08-04T01:57:43.270Z,1.90
2022-08-04T02:00:12.622Z,1.98
2022-08-04T02:02:39.373Z,1.90
2022-08-04T02:05:06.374Z,2.08
2022-08-04T02:08:03.558Z,1.65
2022-08-04T02:10:53.873Z,1.50
2022-08-04T02:13:31.139Z,2.40
2022-08-04T02:16:05.173Z,2.05
2022-08-04T02:18:59.990Z,1.98
2022-08-04T02:21:27.902Z,2.20
2022-08-04T02:24:15.508Z,1.73
2022-08-04T02:26:46.422Z,2.25
2022-08-04T02:29:19.403Z,2.05
2022-08-04T02:31:52.550Z,2.35
2022-08-04T02:34:32.331Z,1.95
2022-08-04T02:37:00.159Z,2.25
2022-08-04T02:39:41.392Z,1.80
2022-08-04T02:42:16.652Z,2.28
2022-08-04T02:44:45.603Z,2.38
2022-08-04T02:47:13.387Z,3.22
2022-08-04T02:49:42.043Z,2.30
2022-08-04T02:52:12.578Z,2.35
2022-08-04T02:54:40.796Z,2.10
2022-08-04T02:57:09.813Z,1.92
2022-08-04T02:59:57.991Z,1.90
2022-08-04T03:02:45.788Z,1.90
2022-08-04T03:05:49.953Z,2.03
2022-08-04T03:09:04.752Z,2.63
2022-08-04T03:11:52.563Z,2.47
2022-08-04T03:14:48.348Z,2.42
2022-08-04T03:17:53.016Z,2.00
2022-08-04T03:20:49.975Z,2.20
2022-08-04T03:24:05.913Z,2.60
2022-08-04T03:26:51.563Z,2.42
2022-08-04T03:29:43.627Z,2.42
2022-08-04T03:32:21.548Z,2.58
2022-08-04T03:35:00.271Z,2.53
2022-08-04T03:37:53.107Z,2.38
2022-08-04T03:40:40.474Z,2.65
2022-08-04T03:43:58.124Z,2.67
2022-08-04T03:46:57.001Z,2.20
2022-08-04T03:49:50.690Z,2.40
2022-08-04T03:52:41.836Z,2.13
2022-08-04T03:55:20.693Z,2.45
2022-08-04T03:58:18.134Z,2.20
2022-08-04T04:00:52.327Z,2.00
2022-08-04T04:04:03.447Z,2.20
2022-08-04T04:07:07.297Z,2.40
2022-08-04T04:09:57.184Z,2.08
2022-08-04T04:12:36.780Z,2.65
2022-08-04T04:15:35.804Z,1.92
2022-08-04T04:18:08.072Z,2.15
2022-08-04T04:20:51.198Z,2.22
2022-08-04T04:23:59.550Z,3.53
2022-08-04T04:26:25.993Z,2.88
2022-08-04T04:29:29.822Z,3.00
2022-08-04T04:32:22.555Z,3.13
2022-08-04T04:34:58.154Z,2.42
2022-08-04T04:37:48.665Z,1.77
2022-08-04T04:40:24.682Z,1.88
2022-08-04T04:43:51.184Z,2.40
2022-08-04T04:46:37.562Z,2.45
2022-08-04T04:49:28.535Z,2.28
2022-08-04T04:52:21.430Z,1.83
2022-08-04T04:55:07.925Z,2.13
2022-08-04T04:57:53.478Z,1.85
2022-08-04T05:00:24.953Z,1.70
2022-08-04T05:03:23.948Z,1.88
2022-08-04T05:06:22.966Z,1.80
2022-08-04T05:09:24.517Z,2.47
2022-08-04T05:12:59.164Z,1.73
2022-08-04T05:14:58.431Z,1.60
2022-08-04T05:17:42.711Z,2.00
2022-08-04T05:20:24.497Z,1.73
2022-08-04T05:22:59.729Z,2.20
2022-08-04T05:25:34.758Z,2.42
2022-08-04T05:28:15.591Z,2.25
2022-08-04T05:30:50.257Z,1.85
2022-08-04T05:33:28.931Z,1.77
2022-08-04T05:36:20.293Z,1.90
2022-08-04T05:38:53.816Z,1.98
2022-08-04T05:41:22.415Z,2.22
2022-08-04T05:43:50.082Z,2.20
2022-08-04T05:46:17.919Z,1.95
2022-08-04T05:48:45.758Z,2.40
2022-08-04T05:51:14.014Z,2.00
2022-08-04T05:53:44.305Z,2.00
2022-08-04T05:56:14.025Z,1.98
2022-08-04T05:58:41.781Z,2.28
2022-08-04T06:01:10.701Z,2.28
2022-08-04T06:03:38.649Z,2.30
2022-08-04T06:06:06.882Z,2.13
2022-08-04T06:08:33.857Z,2.70
2022-08-04T06:11:06.185Z,2.50
2022-08-04T06:13:47.678Z,2.40
2022-08-04T06:16:30.125Z,1.70
2022-08-04T06:20:02.496Z,1.70
2022-08-04T06:21:50.120Z,1.83
2022-08-04T06:24:20.199Z,1.83
2022-08-04T06:26:52.206Z,1.95
2022-08-04T06:29:26.932Z,1.77
2022-08-04T06:32:27.635Z,1.42
2022-08-04T06:34:45.512Z,1.50
2022-08-04T06:37:12.349Z,1.90
2022-08-04T06:40:01.757Z,1.90
2022-08-04T06:42:29.438Z,1.50
2022-08-04T06:44:58.586Z,1.40
2022-08-04T06:47:26.300Z,1.75
2022-08-04T06:51:28.107Z,1.90
2022-08-04T06:52:44.790Z,1.38
2022-08-04T06:55:11.503Z,1.60
2022-08-04T06:57:40.453Z,1.45
2022-08-04T07:00:10.771Z,1.40
2022-08-04T07:02:44.929Z,1.55
2022-08-04T07:05:12.138Z,1.90
2022-08-04T07:07:57.226Z,1.60
2022-08-04T07:10:29.034Z,1.80
2022-08-04T07:12:57.549Z,1.52
2022-08-04T07:17:52.669Z,1.63
2022-08-04T07:20:34.673Z,1.77
2022-08-04T07:23:07.772Z,1.77
2022-08-04T07:25:59.531Z,1.77
2022-08-04T07:28:30.541Z,1.83
2022-08-04T07:31:00.828Z,1.60
2022-08-04T07:33:28.236Z,1.50
2022-08-04T07:36:05.626Z,1.52
2022-08-04T07:38:50.694Z,1.70
2022-08-04T07:41:37.586Z,1.70
2022-08-04T07:44:05.206Z,1.70
2022-08-04T07:46:32.738Z,1.20
2022-08-04T07:49:04.624Z,2.47
2022-08-04T07:51:33.055Z,1.60
2022-08-04T07:54:01.348Z,1.50
2022-08-04T07:56:28.512Z,1.38
2022-08-04T07:58:56.002Z,1.70
2022-08-04T08:01:24.846Z,1.80
2022-08-04T08:03:53.542Z,1.60
2022-08-04T08:06:33.048Z,1.73
2022-08-04T08:09:13.291Z,1.38
2022-08-04T08:12:38.226Z,1.75
2022-08-04T08:14:30.769Z,1.65
2022-08-04T08:16:59.984Z,1.40
2022-08-04T08:19:27.207Z,1.42
2022-08-04T08:21:59.231Z,1.55
2022-08-04T08:24:28.059Z,1.60
2022-08-04T08:26:55.954Z,1.45
2022-08-04T08:29:23.223Z,1.77
2022-08-04T08:31:58.462Z,1.70
2022-08-04T08:34:32.009Z,2.10
2022-08-04T08:37:43.411Z,1.30
2022-08-04T08:40:41.039Z,2.13
2022-08-04T08:44:04.701Z,1.48
2022-08-04T08:46:54.789Z,1.50
2022-08-04T08:50:02.320Z,1.40
2022-08-04T08:52:56.254Z,1.65
2022-08-04T08:55:44.322Z,1.38
2022-08-04T08:58:32.717Z,1.80
2022-08-04T09:01:02.251Z,1.50
2022-08-04T09:04:23.675Z,1.40
2022-08-04T09:06:56.350Z,1.40
2022-08-04T09:09:41.750Z,1.40
2022-08-04T09:12:25.499Z,1.30
2022-08-04T09:15:17.359Z,1.63
2022-08-04T09:18:10.236Z,1.33
2022-08-04T09:20:50.287Z,1.15
2022-08-04T09:23:29.406Z,1.30
2022-08-04T09:26:20.513Z,1.35
2022-08-04T09:29:17.719Z,1.17
2022-08-04T09:32:06.900Z,1.42
2022-08-04T09:35:09.573Z,1.38
2022-08-04T09:37:57.895Z,1.10
2022-08-04T09:40:53.247Z,1.10
2022-08-04T09:43:28.685Z,1.58
2022-08-04T09:46:17.747Z,1.30
2022-08-04T09:48:53.788Z,1.10
2022-08-04T09:51:58.065Z,1.70
2022-08-04T09:54:38.198Z,1.08
2022-08-04T09:57:29.779Z,1.35
2022-08-04T10:00:04.469Z,1.35
2022-08-04T10:02:36.770Z,1.40
2022-08-04T10:05:07.383Z,1.17
2022-08-04T10:07:42.888Z,1.08
2022-08-04T10:10:52.564Z,0.88
2022-08-04T10:13:28.443Z,1.20
2022-08-04T10:16:17.084Z,0.90
2022-08-04T10:18:56.103Z,1.00
2022-08-04T10:21:50.715Z,0.90
2022-08-04T10:26:03.373Z,1.10
2022-08-04T10:28:06.353Z,0.90
2022-08-04T10:30:39.342Z,1.15
2022-08-04T10:33:23.588Z,0.98
2022-08-04T10:36:03.448Z,0.70
2022-08-04T10:38:42.134Z,0.70
2022-08-04T10:41:25.213Z,0.88
2022-08-04T10:44:16.069Z,1.02
2022-08-04T10:46:50.254Z,1.10
2022-08-04T10:49:23.991Z,0.80
2022-08-04T10:51:57.950Z,0.80
2022-08-04T10:54:56.578Z,1.10
2022-08-04T10:57:50.432Z,1.17
2022-08-04T11:00:24.961Z,1.40
2022-08-04T11:03:12.869Z,1.40
2022-08-04T11:05:48.830Z,1.15
2022-08-04T11:08:21.594Z,1.45
2022-08-04T11:11:00.848Z,1.27
2022-08-04T11:13:38.527Z,1.15
2022-08-04T11:19:04.403Z,1.40
2022-08-04T11:21:37.438Z,0.90
2022-08-04T11:24:14.109Z,0.90
2022-08-04T11:26:53.264Z,1.40
2022-08-04T11:29:57.893Z,0.80
2022-08-04T11:32:44.127Z,1.40
2022-08-04T11:35:18.960Z,0.90
2022-08-04T11:37:51.781Z,0.82
2022-08-04T11:40:24.987Z,1.00
2022-08-04T11:43:04.814Z,1.10
2022-08-04T11:45:37.400Z,0.90
2022-08-04T11:48:16.099Z,1.15
2022-08-04T11:50:53.829Z,1.08
2022-08-04T11:53:24.435Z,1.00
2022-08-04T11:56:09.410Z,1.05
2022-08-04T11:58:37.534Z,0.90
2022-08-04T12:04:03.870Z,1.00
2022-08-04T12:09:12.892Z,1.05
2022-08-04T12:12:01.629Z,1.00
2022-08-04T12:14:44.306Z,1.05
2022-08-04T12:17:13.193Z,1.38
2022-08-04T12:20:04.797Z,1.10
2022-08-04T12:22:50.079Z,1.23
2022-08-04T12:25:23.438Z,1.02
2022-08-04T12:27:55.219Z,0.90
2022-08-04T12:30:58.059Z,1.10
2022-08-04T12:34:03.082Z,0.80
2022-08-04T12:36:37.232Z,0.70
2022-08-04T12:39:13.069Z,0.57
2022-08-04T12:41:45.485Z,0.88
2022-08-04T12:44:36.592Z,0.88
2022-08-04T12:47:25.863Z,0.80
2022-08-04T12:50:00.172Z,0.50
2022-08-04T12:55:17.757Z,0.55
2022-08-04T12:57:45.266Z,0.50
2022-08-04T13:00:25.032Z,0.55
2022-08-04T13:03:02.574Z,0.60
2022-08-04T13:05:31.730Z,0.63
2022-08-04T13:08:00.511Z,0.57
2022-08-04T13:10:30.101Z,0.60
2022-08-04T13:13:00.198Z,0.50
2022-08-04T13:15:28.661Z,0.60
2022-08-04T13:18:02.231Z,0.60
2022-08-04T13:20:31.757Z,0.60
2022-08-04T13:23:00.797Z,0.50
2022-08-04T13:26:42.215Z,0.60
2022-08-04T13:28:26.239Z,0.68
2022-08-04T13:30:56.615Z,0.52
2022-08-04T13:33:52.398Z,0.40
2022-08-04T13:36:24.298Z,0.57
2022-08-04T13:38:56.075Z,0.80
2022-08-04T13:41:27.624Z,1.00
2022-08-04T13:44:18.143Z,0.82
2022-08-04T13:46:51.195Z,0.57
2022-08-04T13:49:42.921Z,0.70
2022-08-04T13:52:11.456Z,0.90
2022-08-04T13:54:45.860Z,0.50
2022-08-04T13:57:23.932Z,0.47
2022-08-04T13:59:58.990Z,0.90
2022-08-04T14:02:48.974Z,0.90
2022-08-04T14:05:27.445Z,1.02
2022-08-04T14:08:09.345Z,0.70
2022-08-04T14:10:36.292Z,0.90
2022-08-04T14:13:05.582Z,0.80
2022-08-04T14:16:02.790Z,0.73
2022-08-04T14:18:32.611Z,0.80
2022-08-04T14:21:03.336Z,0.90
2022-08-04T14:23:47.106Z,0.88
2022-08-04T14:26:32.780Z,0.70
2022-08-04T14:29:27.230Z,0.70
2022-08-04T14:32:03.119Z,0.63
2022-08-04T14:34:30.548Z,0.70
2022-08-04T14:37:16.349Z,0.90
2022-08-04T14:40:17.542Z,0.77
2022-08-04T14:42:54.695Z,0.93
2022-08-04T14:45:38.036Z,1.00
2022-08-04T14:48:10.507Z,0.80
2022-08-04T14:50:46.840Z,1.00
2022-08-04T14:53:16.119Z,1.33
2022-08-04T14:55:52.248Z,0.93
2022-08-04T14:58:33.034Z,0.70
2022-08-04T15:01:10.322Z,0.95
2022-08-04T15:03:49.788Z,0.70
2022-08-04T15:06:22.529Z,0.90
2022-08-04T15:08:51.881Z,0.70
2022-08-04T15:11:23.187Z,0.80
2022-08-04T15:13:50.425Z,1.30
2022-08-04T15:16:24.499Z,0.80
2022-08-04T15:18:54.533Z,1.13
2022-08-04T15:21:22.862Z,0.88
2022-08-04T15:23:50.736Z,0.95
2022-08-04T15:26:24.007Z,0.88
2022-08-04T15:28:55.952Z,1.20
2022-08-04T15:32:07.723Z,0.93
2022-08-04T15:34:11.371Z,0.90
2022-08-04T15:36:56.083Z,0.90
2022-08-04T15:39:31.728Z,1.80
2022-08-04T15:42:20.571Z,1.40
2022-08-04T15:46:33.178Z,1.13
2022-08-04T15:48:22.782Z,0.90
2022-08-04T15:50:58.743Z,0.90
2022-08-04T15:53:36.502Z,1.08
2022-08-04T15:56:26.602Z,1.03
2022-08-04T15:58:57.524Z,0.85
2022-08-04T16:01:25.024Z,1.73
2022-08-04T16:03:58.641Z,7.43
2022-08-04T16:06:28.907Z,1.40
2022-08-04T16:09:05.085Z,3.47
2022-08-04T16:11:33.192Z,1.35
2022-08-04T16:14:02.619Z,1.40
2022-08-04T16:19:35.327Z,1.10
2022-08-04T16:22:03.212Z,1.10
2022-08-04T16:24:37.502Z,0.90
2022-08-04T16:27:06.427Z,1.23
2022-08-04T16:29:44.727Z,1.27
2022-08-04T16:32:15.769Z,0.85
2022-08-04T16:35:04.327Z,1.15
2022-08-04T16:37:38.836Z,1.13
2022-08-04T16:43:52.222Z,2.83
2022-08-04T16:47:08.493Z,1.05
2022-08-04T16:49:30.236Z,1.70
2022-08-04T16:52:07.619Z,4.80
2022-08-04T16:54:37.341Z,1.40
2022-08-04T16:57:10.900Z,1.45
2022-08-04T16:59:37.812Z,1.17
2022-08-04T17:02:07.255Z,0.80
2022-08-04T17:04:35.366Z,1.00
2022-08-04T17:07:04.308Z,0.88
2022-08-04T17:09:31.624Z,1.23
2022-08-04T17:11:59.892Z,1.00
2022-08-04T17:14:28.618Z,0.73
2022-08-04T17:19:27.162Z,1.27
2022-08-04T17:22:04.928Z,0.90
2022-08-04T17:24:33.995Z,0.70
2022-08-04T17:27:00.763Z,1.13
2022-08-04T17:29:43.192Z,1.05
2022-08-04T17:32:21.027Z,0.80
2022-08-04T17:35:03.789Z,0.90
2022-08-04T17:37:38.161Z,1.10
2022-08-04T17:40:18.525Z,1.00
2022-08-04T17:44:02.949Z,0.77
2022-08-04T17:46:29.217Z,1.10
2022-08-04T17:49:06.770Z,1.10
2022-08-04T17:52:05.265Z,1.17
2022-08-04T17:57:25.816Z,1.55
2022-08-04T17:59:59.219Z,3.28
2022-08-04T18:05:50.278Z,2.20
2022-08-04T18:08:34.470Z,1.35
2022-08-04T18:11:01.875Z,2.83
2022-08-04T18:13:28.695Z,2.00
2022-08-04T18:16:22.174Z,2.55
2022-08-04T18:19:11.343Z,1.35
2022-08-04T18:21:46.041Z,1.65
2022-08-04T18:24:28.594Z,1.23
2022-08-04T18:27:06.333Z,1.52
2022-08-04T18:29:34.203Z,1.38
2022-08-04T18:32:06.424Z,1.27
2022-08-04T18:34:36.515Z,1.30
2022-08-04T18:38:06.467Z,1.35
2022-08-04T18:40:27.836Z,1.38
2022-08-04T18:43:00.519Z,1.30
2022-08-04T18:45:34.099Z,1.38
2022-08-04T18:48:02.294Z,1.20
2022-08-04T18:50:59.484Z,1.50
2022-08-04T18:53:17.640Z,1.27
2022-08-04T18:55:57.205Z,1.45
2022-08-04T18:58:26.917Z,2.00
2022-08-04T19:00:54.174Z,1.23
2022-08-04T19:06:07.661Z,1.55
2022-08-04T19:08:42.501Z,1.90
2022-08-04T19:11:37.396Z,1.20
2022-08-04T19:13:58.902Z,1.67
2022-08-04T19:16:28.525Z,1.83
2022-08-04T19:21:59.321Z,1.40
2022-08-04T19:24:32.494Z,1.35
2022-08-04T19:26:56.858Z,1.30
2022-08-04T19:29:23.696Z,1.58
2022-08-04T19:32:04.070Z,2.67
2022-08-04T19:34:42.613Z,5.10
2022-08-04T19:37:19.871Z,1.77
2022-08-04T19:40:00.793Z,1.77
2022-08-04T19:42:27.918Z,1.50
2022-08-04T19:44:54.937Z,2.00
2022-08-04T19:48:12.175Z,2.15
2022-08-04T19:50:10.862Z,2.00
2022-08-04T19:52:40.500Z,1.52
2022-08-04T19:55:18.419Z,1.65
2022-08-04T19:57:50.494Z,3.08
2022-08-04T20:00:34.152Z,3.55
2022-08-04T20:03:02.766Z,3.65
2022-08-04T20:05:52.856Z,4.07
2022-08-04T20:08:16.536Z,3.15
2022-08-04T20:10:51.160Z,2.30
2022-08-04T20:13:19.467Z,1.90
2022-08-04T20:15:55.523Z,2.15
2022-08-04T20:18:35.926Z,2.22
2022-08-04T20:21:11.378Z,2.08
2022-08-04T20:23:48.822Z,1.95
2022-08-04T20:26:16.900Z,2.08
2022-08-04T20:28:45.950Z,2.10
2022-08-04T20:31:19.259Z,1.92
2022-08-04T20:33:53.883Z,1.90
2022-08-04T20:36:22.606Z,1.83
2022-08-04T20:38:52.680Z,1.83
2022-08-04T20:41:22.131Z,2.10
2022-08-04T20:43:50.074Z,2.03
2022-08-04T20:46:28.603Z,2.35
2022-08-04T20:48:57.321Z,2.00
2022-08-04T20:51:33.310Z,1.90
2022-08-04T20:54:01.942Z,2.30
2022-08-04T20:56:30.982Z,1.63
2022-08-04T20:59:01.409Z,2.33
2022-08-04T21:01:34.762Z,2.25
2022-08-04T21:04:27.897Z,1.80
2022-08-04T21:06:57.337Z,2.28
2022-08-04T21:09:37.489Z,1.83
2022-08-04T21:12:06.998Z,2.50
2022-08-04T21:14:34.250Z,2.42
2022-08-04T21:17:02.948Z,2.03
2022-08-04T21:19:33.717Z,2.38
2022-08-04T21:22:06.671Z,1.88
2022-08-04T21:24:37.726Z,2.20
2022-08-04T21:27:09.853Z,2.20
2022-08-04T21:29:37.048Z,2.50
2022-08-04T21:32:07.747Z,2.17
2022-08-04T21:34:39.311Z,2.30
2022-08-04T21:37:09.429Z,2.47
2022-08-04T21:39:50.150Z,2.30
2022-08-04T21:42:29.165Z,2.60
2022-08-04T21:44:57.411Z,2.35
2022-08-04T21:47:24.113Z,2.53
2022-08-04T21:49:56.256Z,2.72
2022-08-04T21:52:24.212Z,2.22
2022-08-04T21:54:54.537Z,2.83
2022-08-04T21:57:22.604Z,2.60
2022-08-04T21:59:51.607Z,2.83
2022-08-04T22:02:18.265Z,3.08
2022-08-04T22:04:44.916Z,2.80
2022-08-04T22:07:11.531Z,2.05
2022-08-04T22:09:41.592Z,2.75
2022-08-04T22:12:12.522Z,2.30
2022-08-04T22:14:40.438Z,2.75
2022-08-04T22:17:06.994Z,2.90
2022-08-04T22:19:55.026Z,3.05
2022-08-04T22:22:25.974Z,2.75
2022-08-04T22:24:58.721Z,2.92
2022-08-04T22:27:44.386Z,3.00
2022-08-04T22:30:17.493Z,2.72
2022-08-04T22:32:46.266Z,2.83
2022-08-04T22:35:35.450Z,2.50
2022-08-04T22:38:06.935Z,2.78
2022-08-04T22:40:36.501Z,2.90
2022-08-04T22:43:04.102Z,2.67
2022-08-04T22:45:50.823Z,2.85
2022-08-04T22:48:18.433Z,2.60
2022-08-04T22:53:20.168Z,2.88
2022-08-04T22:56:06.586Z,2.45
2022-08-04T22:58:33.237Z,2.80
2022-08-04T23:01:00.230Z,2.53
2022-08-04T23:03:37.327Z,3.45
2022-08-04T23:06:11.773Z,2.45
2022-08-04T23:08:42.907Z,3.25
2022-08-04T23:11:10.741Z,2.78
2022-08-04T23:13:37.784Z,3.17
2022-08-04T23:16:10.066Z,2.22
2022-08-04T23:18:41.883Z,2.42
2022-08-04T23:21:10.453Z,3.45
2022-08-04T23:23:45.489Z,3.20
2022-08-04T23:26:27.708Z,3.17
2022-08-04T23:28:55.613Z,2.55
2022-08-04T23:31:23.343Z,2.80
2022-08-04T23:33:52.097Z,3.13
2022-08-04T23:36:29.617Z,3.90
2022-08-04T23:39:04.155Z,2.70
2022-08-04T23:41:55.149Z,3.00
2022-08-04T23:44:24.852Z,3.97
2022-08-04T23:47:00.446Z,3.17
2022-08-04T23:49:43.751Z,3.20
2022-08-04T23:52:23.288Z,3.03
2022-08-04T23:54:55.784Z,3.47
2022-08-04T23:57:23.325Z,3.08
2022-08-04T23:59:54.286Z,3.50
